createdAt,value
2023-05-24T00:00:33.044Z,97.60
2023-05-24T00:03:02.877Z,97.70
2023-05-24T00:05:31.323Z,97.60
2023-05-24T00:08:01.291Z,97.50
2023-05-24T00:10:29.365Z,97.60
2023-05-24T00:12:57.423Z,97.60
2023-05-24T00:15:25.672Z,97.60
2023-05-24T00:17:53.746Z,97.50
2023-05-24T00:20:21.839Z,97.70
2023-05-24T00:22:49.892Z,97.70
2023-05-24T00:25:19.316Z,97.70
2023-05-24T00:27:47.675Z,97.80
2023-05-24T00:30:15.879Z,97.70
2023-05-24T00:32:43.923Z,97.60
2023-05-24T00:35:12.035Z,97.60
2023-05-24T00:37:41.935Z,97.50
2023-05-24T00:40:11.153Z,97.80
2023-05-24T00:42:40.614Z,97.40
2023-05-24T00:45:11.318Z,97.50
2023-05-24T00:47:39.506Z,97.50
2023-05-24T00:50:09.650Z,97.50
2023-05-24T00:52:38.005Z,97.60
2023-05-24T00:55:07.111Z,97.60
2023-05-24T00:57:35.707Z,97.60
2023-05-24T01:00:06.137Z,97.60
2023-05-24T01:02:34.276Z,97.60
2023-05-24T01:05:02.914Z,97.60
2023-05-24T01:07:38.844Z,97.60
2023-05-24T01:10:14.531Z,97.70
2023-05-24T01:12:54.829Z,97.70
2023-05-24T01:15:30.841Z,97.70
2023-05-24T01:18:07.925Z,97.60
2023-05-24T01:20:38.824Z,97.70
2023-05-24T01:23:16.155Z,97.60
2023-05-24T01:25:51.165Z,97.60
2023-05-24T01:28:22.075Z,97.50
2023-05-24T01:30:50.805Z,97.60
2023-05-24T01:33:19.096Z,97.40
2023-05-24T01:35:47.138Z,97.50
2023-05-24T01:38:16.224Z,97.50
2023-05-24T01:40:45.316Z,97.50
2023-05-24T01:43:19.531Z,97.40
2023-05-24T01:46:00.986Z,97.30
2023-05-24T01:48:39.202Z,97.60
2023-05-24T01:51:08.761Z,97.30
2023-05-24T01:53:42.301Z,97.30
2023-05-24T01:56:12.222Z,97.20
2023-05-24T01:58:42.101Z,97.20
2023-05-24T02:01:14.480Z,97.20
2023-05-24T02:03:42.987Z,97.30
2023-05-24T02:06:11.700Z,97.30
2023-05-24T02:08:39.703Z,97.30
2023-05-24T02:11:07.834Z,97.50
2023-05-24T02:13:35.844Z,97.20
2023-05-24T02:16:05.160Z,97.20
2023-05-24T02:18:34.999Z,97.60
2023-05-24T02:21:03.332Z,97.60
2023-05-24T02:23:31.795Z,97.30
2023-05-24T02:25:59.850Z,97.30
2023-05-24T02:28:30.040Z,97.40
2023-05-24T02:30:58.122Z,97.40
2023-05-24T02:33:26.408Z,97.70
2023-05-24T02:35:55.881Z,97.40
2023-05-24T02:38:24.163Z,97.40
2023-05-24T02:40:52.179Z,97.50
2023-05-24T02:43:20.421Z,97.50
2023-05-24T02:45:48.457Z,97.50
2023-05-24T02:48:16.495Z,97.50
2023-05-24T02:50:44.712Z,97.50
2023-05-24T02:53:14.290Z,97.60
2023-05-24T02:55:43.974Z,97.60
2023-05-24T02:58:12.183Z,97.60
2023-05-24T03:00:40.326Z,97.60
2023-05-24T03:03:08.859Z,97.90
2023-05-24T03:05:36.938Z,97.60
2023-05-24T03:08:05.072Z,97.60
2023-05-24T03:10:34.433Z,97.60
2023-05-24T03:13:02.515Z,97.70
2023-05-24T03:15:30.686Z,97.80
2023-05-24T03:17:58.704Z,97.80
2023-05-24T03:20:26.838Z,98.10
2023-05-24T03:22:54.917Z,97.80
2023-05-24T03:25:23.216Z,97.80
2023-05-24T03:27:52.579Z,97.90
2023-05-24T03:30:20.690Z,97.90
2023-05-24T03:32:48.753Z,98.00
2023-05-24T03:35:16.888Z,97.90
2023-05-24T03:37:44.914Z,97.90
2023-05-24T03:40:13.360Z,97.90
2023-05-24T03:42:41.401Z,97.90
2023-05-24T03:45:11.931Z,97.90
2023-05-24T03:47:40.257Z,98.00
2023-05-24T03:50:09.165Z,98.00
2023-05-24T03:52:37.218Z,98.00
2023-05-24T03:55:05.717Z,98.00
2023-05-24T03:57:33.773Z,98.10
2023-05-24T04:00:01.801Z,98.50
2023-05-24T04:02:31.259Z,98.20
2023-05-24T04:04:59.344Z,98.40
2023-05-24T04:07:28.263Z,98.30
2023-05-24T04:09:56.264Z,98.30
2023-05-24T04:12:24.612Z,98.20
2023-05-24T04:14:52.861Z,98.20
2023-05-24T04:17:25.084Z,98.20
2023-05-24T04:19:54.772Z,98.20
2023-05-24T04:22:24.970Z,98.30
2023-05-24T04:24:53.837Z,98.20
2023-05-24T04:27:22.258Z,98.30
2023-05-24T04:29:50.576Z,98.30
2023-05-24T04:32:19.852Z,98.00
2023-05-24T04:34:47.876Z,97.80
2023-05-24T04:37:17.726Z,97.70
2023-05-24T04:39:46.180Z,97.70
2023-05-24T04:42:14.825Z,97.50
2023-05-24T04:44:43.089Z,97.60
2023-05-24T04:47:11.132Z,97.60
2023-05-24T04:49:39.659Z,97.40
2023-05-24T04:52:08.686Z,97.70
2023-05-24T04:54:38.665Z,97.50
2023-05-24T04:57:07.109Z,97.50
2023-05-24T04:59:35.164Z,97.50
2023-05-24T05:02:03.273Z,97.40
2023-05-24T05:04:31.320Z,97.30
2023-05-24T05:06:59.394Z,97.30
2023-05-24T05:09:28.193Z,97.40
2023-05-24T05:11:58.505Z,97.20
2023-05-24T05:14:26.556Z,97.10
2023-05-24T05:16:54.734Z,97.20
2023-05-24T05:19:22.905Z,97.20
2023-05-24T05:21:50.946Z,97.20
2023-05-24T05:24:20.430Z,97.30
2023-05-24T05:26:48.601Z,97.10
2023-05-24T05:29:17.969Z,97.10
2023-05-24T05:31:46.057Z,97.10
2023-05-24T05:34:14.126Z,97.10
2023-05-24T05:36:42.623Z,97.00
2023-05-24T05:39:10.924Z,97.00
2023-05-24T05:41:40.612Z,97.00
2023-05-24T05:44:08.679Z,97.40
2023-05-24T05:46:38.119Z,97.00
2023-05-24T05:49:06.236Z,97.10
2023-05-24T05:51:34.285Z,97.10
2023-05-24T05:54:02.309Z,97.20
2023-05-24T05:56:31.067Z,97.00
2023-05-24T05:58:59.114Z,96.90
2023-05-24T06:01:27.356Z,96.80
2023-05-24T06:03:56.821Z,96.60
2023-05-24T06:06:24.911Z,96.80
2023-05-24T06:08:52.894Z,96.90
2023-05-24T06:11:21.102Z,97.00
2023-05-24T06:13:49.145Z,96.80
2023-05-24T06:16:18.373Z,96.60
2023-05-24T06:18:57.116Z,96.70
2023-05-24T06:21:32.231Z,96.60
2023-05-24T06:24:00.371Z,96.30
2023-05-24T06:26:28.398Z,96.40
2023-05-24T06:28:56.792Z,96.50
2023-05-24T06:31:24.888Z,96.60
2023-05-24T06:34:03.940Z,96.70
2023-05-24T06:36:36.032Z,96.70
2023-05-24T06:39:04.803Z,97.00
2023-05-24T06:41:33.066Z,96.80
2023-05-24T06:44:01.076Z,97.20
2023-05-24T06:46:29.173Z,96.70
2023-05-24T06:48:57.316Z,96.50
2023-05-24T06:51:25.501Z,96.70
2023-05-24T06:53:54.945Z,96.70
2023-05-24T06:56:23.686Z,96.50
2023-05-24T06:58:51.715Z,96.50
2023-05-24T07:01:19.850Z,96.80
2023-05-24T07:03:47.990Z,96.40
2023-05-24T07:06:18.388Z,96.30
2023-05-24T07:08:46.610Z,96.40
2023-05-24T07:11:16.422Z,96.00
2023-05-24T07:13:44.488Z,96.20
2023-05-24T07:16:12.828Z,96.30
2023-05-24T07:18:41.801Z,96.30
2023-05-24T07:21:10.074Z,96.10
2023-05-24T07:23:38.794Z,95.80
2023-05-24T07:26:07.499Z,95.70
2023-05-24T07:28:37.959Z,95.40
2023-05-24T07:31:08.162Z,95.90
2023-05-24T07:33:38.491Z,96.10
2023-05-24T07:36:07.261Z,96.10
2023-05-24T07:38:36.072Z,96.00
2023-05-24T07:41:04.820Z,96.10
2023-05-24T07:43:32.961Z,96.00
2023-05-24T07:46:02.877Z,96.00
2023-05-24T07:48:31.010Z,95.80
2023-05-24T07:50:59.045Z,95.80
2023-05-24T07:53:27.388Z,95.60
2023-05-24T07:55:56.470Z,95.30
2023-05-24T07:58:24.549Z,95.30
2023-05-24T08:00:53.218Z,95.60
2023-05-24T08:03:25.934Z,95.40
2023-05-24T08:05:54.185Z,95.30
2023-05-24T08:08:22.551Z,95.20
2023-05-24T08:10:50.669Z,95.10
2023-05-24T08:13:18.844Z,94.90
2023-05-24T08:15:47.013Z,94.80
2023-05-24T08:18:15.101Z,94.90
2023-05-24T08:20:44.561Z,95.10
2023-05-24T08:23:12.695Z,95.20
2023-05-24T08:25:41.207Z,94.70
2023-05-24T08:28:11.047Z,94.80
2023-05-24T08:30:39.528Z,94.90
2023-05-24T08:33:07.591Z,94.90
2023-05-24T08:35:36.016Z,94.70
2023-05-24T08:38:05.466Z,94.40
2023-05-24T08:40:33.528Z,94.30
2023-05-24T08:43:03.171Z,94.20
2023-05-24T08:45:32.077Z,94.30
2023-05-24T08:48:01.625Z,94.20
2023-05-24T08:50:31.293Z,93.80
2023-05-24T08:53:02.053Z,93.90
2023-05-24T08:55:33.444Z,93.80
2023-05-24T08:58:02.161Z,94.00
2023-05-24T09:00:30.296Z,94.30
2023-05-24T09:02:59.937Z,94.50
2023-05-24T09:05:30.398Z,94.70
2023-05-24T09:08:00.964Z,94.50
2023-05-24T09:10:44.963Z,94.30
2023-05-24T09:13:23.868Z,94.10
2023-05-24T09:15:52.289Z,94.20
2023-05-24T09:18:20.458Z,94.40
2023-05-24T09:20:48.773Z,93.90
2023-05-24T09:23:17.649Z,94.00
2023-05-24T09:25:48.427Z,94.00
2023-05-24T09:28:18.143Z,94.00
2023-05-24T09:30:47.496Z,93.80
2023-05-24T09:33:15.559Z,93.80
2023-05-24T09:35:44.571Z,93.80
2023-05-24T09:38:19.437Z,93.60
2023-05-24T09:40:48.825Z,93.00
2023-05-24T09:43:16.877Z,93.30
2023-05-24T09:45:47.135Z,93.20
2023-05-24T09:48:17.265Z,92.90
2023-05-24T09:50:47.841Z,93.00
2023-05-24T09:53:18.657Z,92.70
2023-05-24T09:55:48.816Z,92.30
2023-05-24T09:58:18.485Z,92.70
2023-05-24T10:00:47.129Z,93.30
2023-05-24T10:03:16.214Z,92.90
2023-05-24T10:05:46.797Z,92.80
2023-05-24T10:08:15.473Z,92.90
2023-05-24T10:10:44.610Z,92.70
2023-05-24T10:13:16.038Z,92.40
2023-05-24T10:15:44.951Z,92.30
2023-05-24T10:18:14.095Z,92.00
2023-05-24T10:20:43.226Z,92.30
2023-05-24T10:23:12.077Z,92.70
2023-05-24T10:25:46.715Z,92.90
2023-05-24T10:28:18.029Z,93.00
2023-05-24T10:31:02.887Z,92.70
2023-05-24T10:33:33.512Z,92.60
2023-05-24T10:36:01.986Z,92.00
2023-05-24T10:38:31.423Z,91.70
2023-05-24T10:40:59.830Z,91.90
2023-05-24T10:43:29.295Z,92.00
2023-05-24T10:45:57.587Z,91.60
2023-05-24T10:48:39.296Z,91.70
2023-05-24T10:51:30.863Z,91.50
2023-05-24T10:53:59.584Z,91.00
2023-05-24T10:56:29.166Z,90.90
2023-05-24T10:59:02.433Z,91.10
2023-05-24T11:01:32.365Z,91.00
2023-05-24T11:04:11.176Z,90.80
2023-05-24T11:06:49.631Z,91.00
2023-05-24T11:09:20.057Z,91.00
2023-05-24T11:11:50.051Z,91.10
2023-05-24T11:14:25.312Z,91.10
2023-05-24T11:16:53.494Z,90.90
2023-05-24T11:19:22.972Z,90.70
2023-05-24T11:21:53.231Z,90.80
2023-05-24T11:24:22.333Z,91.20
2023-05-24T11:26:52.145Z,91.20
2023-05-24T11:29:22.749Z,91.00
2023-05-24T11:31:52.575Z,91.10
2023-05-24T11:34:21.231Z,91.40
2023-05-24T11:36:50.038Z,91.90
2023-05-24T11:39:18.241Z,91.70
2023-05-24T11:41:46.345Z,91.70
2023-05-24T11:44:19.014Z,91.50
2023-05-24T11:46:48.452Z,91.30
2023-05-24T11:49:17.731Z,91.20
2023-05-24T11:51:45.774Z,91.00
2023-05-24T11:54:13.867Z,91.00
2023-05-24T11:56:41.908Z,91.10
2023-05-24T11:59:17.609Z,91.00
2023-05-24T12:01:45.953Z,90.90
2023-05-24T12:04:15.512Z,91.30
2023-05-24T12:06:46.155Z,91.00
2023-05-24T12:09:14.711Z,90.90
2023-05-24T12:11:44.590Z,90.70
2023-05-24T12:14:16.311Z,90.60
2023-05-24T12:16:45.507Z,90.10
2023-05-24T12:21:57.646Z,90.00
2023-05-24T12:24:27.658Z,90.10
2023-05-24T12:27:02.189Z,90.20
2023-05-24T12:29:35.198Z,90.10
2023-05-24T12:32:03.628Z,90.00
2023-05-24T12:34:33.901Z,90.30
2023-05-24T12:37:01.976Z,90.20
2023-05-24T12:39:31.754Z,90.10
2023-05-24T12:42:02.918Z,89.70
2023-05-24T12:44:32.972Z,90.10
2023-05-24T12:47:03.222Z,89.60
2023-05-24T12:49:32.921Z,90.00
2023-05-24T12:52:01.815Z,89.80
2023-05-24T12:54:30.493Z,90.00
2023-05-24T12:57:03.779Z,90.10
2023-05-24T12:59:32.013Z,90.00
2023-05-24T13:02:00.430Z,90.00
2023-05-24T13:04:30.511Z,90.40
2023-05-24T13:07:00.403Z,90.10
2023-05-24T13:09:28.551Z,89.90
2023-05-24T13:11:56.891Z,90.00
2023-05-24T13:14:24.926Z,89.70
2023-05-24T13:16:53.346Z,88.50
2023-05-24T13:19:21.696Z,87.30
2023-05-24T13:21:49.721Z,86.80
2023-05-24T13:24:20.247Z,86.90
2023-05-24T13:26:49.321Z,86.50
2023-05-24T13:29:34.223Z,86.90
2023-05-24T13:32:06.840Z,86.70
2023-05-24T13:34:34.936Z,86.50
2023-05-24T13:37:03.013Z,86.70
2023-05-24T13:39:32.444Z,87.40
2023-05-24T13:42:00.903Z,87.60
2023-05-24T13:44:29.505Z,87.40
2023-05-24T13:46:57.699Z,88.10
2023-05-24T13:49:25.812Z,88.30
2023-05-24T13:51:57.201Z,88.10
2023-05-24T13:54:26.468Z,88.40
2023-05-24T13:56:57.537Z,88.10
2023-05-24T13:59:25.813Z,87.40
2023-05-24T14:01:54.087Z,87.80
2023-05-24T14:04:22.372Z,87.90
2023-05-24T14:06:50.423Z,86.90
2023-05-24T14:09:18.448Z,86.60
2023-05-24T14:11:46.533Z,87.20
2023-05-24T14:16:51.566Z,87.20
2023-05-24T14:19:19.728Z,86.50
2023-05-24T14:21:47.773Z,86.00
2023-05-24T14:24:15.904Z,86.30
2023-05-24T14:26:43.951Z,86.70
2023-05-24T14:29:11.977Z,86.60
2023-05-24T14:31:42.992Z,86.30
2023-05-24T14:34:11.978Z,86.30
2023-05-24T14:36:41.624Z,86.30
2023-05-24T14:39:10.219Z,87.00
2023-05-24T14:41:38.225Z,87.00
2023-05-24T14:44:07.444Z,87.00
2023-05-24T14:46:35.892Z,87.10
2023-05-24T14:49:05.741Z,86.80
2023-05-24T14:51:33.813Z,87.40
2023-05-24T14:54:02.023Z,87.40
2023-05-24T14:56:30.129Z,87.80
2023-05-24T14:58:59.359Z,87.70
2023-05-24T15:01:27.641Z,87.60
2023-05-24T15:03:55.855Z,87.00
2023-05-24T15:06:25.470Z,87.00
2023-05-24T15:08:53.571Z,86.30
2023-05-24T15:11:23.059Z,86.00
2023-05-24T15:13:55.402Z,86.30
2023-05-24T15:16:23.516Z,86.60
2023-05-24T15:18:52.900Z,86.50
2023-05-24T15:21:21.184Z,84.80
2023-05-24T15:23:50.599Z,83.40
2023-05-24T15:26:18.869Z,83.50
2023-05-24T15:28:46.897Z,85.50
2023-05-24T15:31:14.972Z,86.30
2023-05-24T15:33:43.042Z,86.70
2023-05-24T15:36:14.256Z,85.20
2023-05-24T15:38:43.003Z,85.80
2023-05-24T15:41:12.452Z,85.60
2023-05-24T15:43:41.622Z,85.70
2023-05-24T15:46:09.672Z,84.10
2023-05-24T15:48:37.738Z,83.70
2023-05-24T15:51:57.984Z,84.40
2023-05-24T15:53:55.503Z,84.30
2023-05-24T15:56:24.966Z,83.50
2023-05-24T15:58:53.029Z,83.40
2023-05-24T16:01:21.298Z,83.80
2023-05-24T16:03:49.482Z,82.80
2023-05-24T16:06:17.676Z,81.70
2023-05-24T16:08:45.905Z,80.70
2023-05-24T16:11:13.914Z,79.80
2023-05-24T16:13:43.306Z,79.30
2023-05-24T16:16:11.541Z,79.70
2023-05-24T16:18:39.565Z,80.00
2023-05-24T16:21:07.632Z,80.40
2023-05-24T16:23:35.663Z,80.70
2023-05-24T16:26:03.677Z,81.10
2023-05-24T16:28:31.788Z,81.90
2023-05-24T16:31:03.170Z,83.90
2023-05-24T16:33:31.272Z,84.60
2023-05-24T16:36:02.914Z,84.70
2023-05-24T16:38:31.498Z,83.70
2023-05-24T16:40:59.659Z,82.90
2023-05-24T16:43:27.727Z,82.90
2023-05-24T16:45:57.852Z,83.10
2023-05-24T16:48:29.142Z,82.70
2023-05-24T16:50:57.688Z,81.90
2023-05-24T16:53:27.050Z,81.00
2023-05-24T16:55:55.902Z,81.60
2023-05-24T16:58:24.809Z,81.40
2023-05-24T17:00:54.640Z,81.00
2023-05-24T17:03:27.865Z,79.30
2023-05-24T17:06:03.274Z,79.90
2023-05-24T17:08:34.129Z,80.70
2023-05-24T17:11:02.286Z,81.40
2023-05-24T17:13:30.572Z,81.20
2023-05-24T17:15:59.983Z,81.40
2023-05-24T17:18:31.492Z,81.00
2023-05-24T17:21:02.493Z,81.10
2023-05-24T17:23:32.825Z,81.60
2023-05-24T17:26:02.677Z,80.90
2023-05-24T17:28:31.228Z,80.60
2023-05-24T17:31:00.947Z,79.70
2023-05-24T17:33:29.936Z,79.90
2023-05-24T17:35:58.374Z,79.50
2023-05-24T17:38:28.832Z,79.50
2023-05-24T17:40:59.847Z,79.00
2023-05-24T17:43:31.954Z,79.30
2023-05-24T17:46:05.925Z,79.70
2023-05-24T17:48:35.692Z,80.70
2023-05-24T17:51:06.441Z,81.50
2023-05-24T17:53:38.795Z,81.80
2023-05-24T17:56:07.715Z,81.80
2023-05-24T17:58:37.221Z,81.80
2023-05-24T18:01:06.999Z,82.40
2023-05-24T18:03:36.767Z,81.70
2023-05-24T18:06:06.873Z,82.10
2023-05-24T18:08:38.663Z,81.40
2023-05-24T18:11:09.842Z,81.30
2023-05-24T18:13:39.323Z,82.00
2023-05-24T18:16:07.867Z,80.80
2023-05-24T18:18:35.900Z,80.90
2023-05-24T18:21:04.020Z,81.00
2023-05-24T18:23:34.099Z,80.60
2023-05-24T18:26:03.791Z,80.50
2023-05-24T18:28:31.856Z,80.40
2023-05-24T18:30:59.910Z,80.70
2023-05-24T18:33:28.000Z,80.90
2023-05-24T18:35:56.450Z,81.40
2023-05-24T18:38:24.607Z,82.30
2023-05-24T18:40:52.773Z,81.80
2023-05-24T18:43:22.216Z,82.00
2023-05-24T18:45:50.580Z,82.40
2023-05-24T18:48:18.673Z,82.60
2023-05-24T18:50:49.949Z,82.80
2023-05-24T18:53:17.988Z,83.50
2023-05-24T18:55:46.990Z,83.50
2023-05-24T18:58:15.611Z,83.90
2023-05-24T19:00:45.053Z,84.20
2023-05-24T19:03:14.189Z,85.30
2023-05-24T19:05:44.021Z,84.70
2023-05-24T19:08:12.820Z,84.90
2023-05-24T19:10:41.321Z,85.10
2023-05-24T19:13:09.404Z,86.00
2023-05-24T19:15:37.808Z,85.60
2023-05-24T19:18:07.703Z,85.90
2023-05-24T19:20:36.049Z,86.00
2023-05-24T19:23:04.205Z,86.30
2023-05-24T19:25:32.269Z,86.30
2023-05-24T19:28:00.872Z,86.70
2023-05-24T19:30:29.230Z,86.70
2023-05-24T19:32:57.290Z,87.10
2023-05-24T19:35:26.676Z,87.20
2023-05-24T19:37:54.754Z,87.40
2023-05-24T19:40:22.814Z,87.40
2023-05-24T19:42:50.858Z,87.60
2023-05-24T19:45:19.108Z,88.60
2023-05-24T19:47:47.222Z,87.90
2023-05-24T19:50:15.248Z,88.00
2023-05-24T19:52:44.807Z,88.10
2023-05-24T19:55:12.839Z,88.30
2023-05-24T19:57:40.865Z,88.60
2023-05-24T20:00:09.640Z,88.70
2023-05-24T20:02:37.753Z,88.80
2023-05-24T20:05:06.770Z,89.10
2023-05-24T20:07:34.799Z,89.30
2023-05-24T20:10:05.189Z,89.30
2023-05-24T20:12:34.498Z,89.50
2023-05-24T20:15:02.661Z,89.50
2023-05-24T20:17:30.788Z,89.70
2023-05-24T20:19:58.925Z,90.00
2023-05-24T20:22:27.031Z,90.00
2023-05-24T20:24:55.086Z,90.00
2023-05-24T20:27:24.480Z,90.10
2023-05-24T20:29:52.507Z,90.10
2023-05-24T20:32:21.375Z,90.20
2023-05-24T20:34:49.426Z,90.30
2023-05-24T20:37:17.439Z,90.30
2023-05-24T20:39:45.452Z,90.40
2023-05-24T20:42:13.490Z,90.50
2023-05-24T20:44:42.872Z,90.60
2023-05-24T20:47:10.946Z,90.70
2023-05-24T20:49:39.124Z,90.80
2023-05-24T20:52:07.508Z,90.80
2023-05-24T20:54:36.066Z,90.90
2023-05-24T20:57:04.213Z,90.90
2023-05-24T20:59:32.241Z,91.00
2023-05-24T21:02:01.681Z,91.00
2023-05-24T21:04:29.739Z,91.10
2023-05-24T21:06:57.827Z,91.20
2023-05-24T21:09:25.822Z,91.20
2023-05-24T21:11:53.846Z,91.30
2023-05-24T21:14:21.909Z,91.30
2023-05-24T21:16:49.933Z,91.40
2023-05-24T21:19:19.458Z,91.40
2023-05-24T21:21:47.506Z,91.40
2023-05-24T21:24:16.111Z,91.50
2023-05-24T21:26:44.133Z,91.60
2023-05-24T21:29:13.186Z,91.60
2023-05-24T21:31:41.395Z,91.60
2023-05-24T21:34:09.548Z,91.60
2023-05-24T21:36:38.951Z,91.70
2023-05-24T21:39:08.321Z,91.90
2023-05-24T21:41:37.180Z,91.90
2023-05-24T21:44:07.318Z,91.90
2023-05-24T21:46:36.305Z,92.00
2023-05-24T21:49:06.954Z,92.00
2023-05-24T21:51:35.038Z,92.10
2023-05-24T21:54:04.655Z,92.10
2023-05-24T21:56:32.724Z,92.20
2023-05-24T21:59:00.717Z,92.20
2023-05-24T22:01:29.331Z,92.40
2023-05-24T22:03:57.654Z,92.40
2023-05-24T22:06:25.796Z,92.40
2023-05-24T22:08:53.836Z,92.50
2023-05-24T22:11:23.428Z,92.50
2023-05-24T22:13:51.501Z,92.50
2023-05-24T22:16:19.638Z,93.00
2023-05-24T22:18:47.918Z,92.70
2023-05-24T22:21:15.979Z,92.80
2023-05-24T22:23:44.044Z,93.20
2023-05-24T22:26:12.916Z,93.00
2023-05-24T22:28:55.880Z,93.00
2023-05-24T22:31:24.185Z,93.50
2023-05-24T22:33:52.521Z,93.20
2023-05-24T22:36:20.962Z,93.20
2023-05-24T22:38:49.299Z,93.30
2023-05-24T22:41:17.390Z,93.40
2023-05-24T22:43:45.450Z,93.40
2023-05-24T22:46:14.937Z,93.40
2023-05-24T22:48:43.090Z,93.50
2023-05-24T22:51:12.195Z,93.50
2023-05-24T22:53:40.322Z,93.60
2023-05-24T22:56:10.408Z,93.60
2023-05-24T22:58:39.092Z,94.00
2023-05-24T23:01:07.225Z,93.70
2023-05-24T23:03:37.031Z,93.80
2023-05-24T23:06:05.531Z,93.80
2023-05-24T23:08:34.215Z,93.80
2023-05-24T23:11:10.233Z,93.80
2023-05-24T23:13:38.457Z,93.90
2023-05-24T23:16:07.113Z,93.90
2023-05-24T23:18:37.756Z,94.00
2023-05-24T23:21:06.138Z,94.00
2023-05-24T23:23:34.166Z,94.10
2023-05-24T23:26:02.186Z,94.10
2023-05-24T23:28:30.437Z,94.20
2023-05-24T23:30:58.556Z,94.30
2023-05-24T23:33:26.544Z,94.30
2023-05-24T23:35:55.998Z,94.30
2023-05-24T23:38:24.040Z,94.40
2023-05-24T23:40:52.069Z,94.80
2023-05-24T23:43:20.103Z,94.50
2023-05-24T23:45:48.162Z,94.50
2023-05-24T23:48:16.226Z,94.60
2023-05-24T23:50:53.435Z,94.60
2023-05-24T23:53:23.643Z,94.60
2023-05-24T23:55:51.680Z,95.00
2023-05-24T23:58:19.745Z,94.70
